Aviation Digital Data Service (ADDS)

Output produced by METARs form (0305 UTC 19 April 2015)
found at http://aviationweather.gov/adds/metars/
 
KDAG 190250Z AUTO 24014KT 10SM CLR 27/M08 A2985 RMK AO2 SLP088 T02671078 55001 $
KDAG 182320Z 1900/1924 31008KT P6SM SKC 
     FM190300 26011KT P6SM SKC 
     FM191600 31009KT P6SM SKC
       
KEDW 190258Z AUTO 23016G25KT 10SM CLR 22/M03 A2990 RMK AO2 SLP113 T02211030 53007
TAF AMD KEDW 1807/1908 27009KT 9999 SKC QNH2994INS 
     BECMG 1820/1821 23012G18KT 9999 SKC QNH2995INS 
     TEMPO 1823/1902 25018G25KT 510009 
     BECMG 1904/1905 22009KT 9999 SKC QNH2998INS TX29/1823Z TN08/1812Z COR 180740 LAST NO AMDS AFT 18/07Z NEXT 20/10Z
       
KVCV 190255Z AUTO 20005KT 10SM CLR 21/M03 A2995 RMK AO2
KONT 190253Z 22008KT 10SM FEW040 22/08 A2992 RMK AO2 SLP123 FU FEW040 T02170083 53004
KONT 182323Z 1900/2006 26011KT P6SM SKC 
     FM190400 VRB05KT P6SM SKC 
     FM191200 VRB03KT 2SM BR SCT005 
     FM191500 VRB03KT 6SM HZ FEW008 
     FM192100 26011G18KT P6SM SKC 
     FM200400 25007KT P6SM SKC
       
KSNA 190253Z 22004KT 10SM FEW045 18/12 A2994 RMK AO2 SLP137 FU FEW045 T01780122 53004
KSNA 182323Z 1900/1924 21010KT P6SM SKC 
     FM190400 VRB04KT P6SM FEW009 
     FM190930 VRB03KT 3SM BR VCFG BKN006 
     FM191700 VRB04KT 6SM HZ FEW009 
     FM192000 22009KT P6SM SKC
       
KSAN 190251Z 30004KT 10SM FEW010 19/12 A2996 RMK AO2 SLP145 T01940122 55000
KSAN 182323Z 1900/2006 30008KT P6SM SKC 
     FM190500 VRB04KT P6SM FEW008 
     FM191000 VRB03KT 5SM BR VCFG BKN007 
     FM191630 VRB04KT P6SM SCT010 
     FM191900 29010KT P6SM SKC 
     FM200400 VRB04KT P6SM BKN008
       
KNID 190256Z AUTO 25007KT 10SM CLR 24/M06 A2985 RMK AO2 SLP098 T02441061 55002
KNXP 190256Z AUTO 23015KT 10SM CLR 25/M06 A2993 RMK AO2 SLP103 T02501056 53003 $
TAF KNXP 1821/1921 VRB06KT 9999 SKC QNH2989INS AUTOMATED SENSOR METWATCH 1821 TIL 2014 T31/1822Z T16/1914Z
       
KPSP 190253Z 32015G20KT 10SM CLR 30/M02 A2981 RMK AO2 SLP090 T03001022 53001
KPSP 182323Z 1900/1924 32011KT P6SM SKC 
     FM190700 VRB05KT P6SM SKC 
     FM192200 10008KT P6SM SKC
       
KLAX 190253Z 26011KT 10SM FEW015 16/13 A2994 RMK AO2 SLP138 T01560128 53000
KLAX 190300Z 1903/2006 25009KT P6SM FEW015 
     FM190900 VRB03KT 5SM BR BKN007 
     FM191100 VRB03KT 1SM BR OVC005 
     FM191500 VRB03KT 3SM BR OVC008 
     FM191800 25006KT 6SM HZ SCT012 
     FM192000 25012KT P6SM SCT250 
     FM200400 VRB03KT 5SM HZ SCT009
       
KCNO 190253Z 25009KT 10SM FU CLR 20/09 A2993 RMK AO2 SLP131 T02000089 53004
KSMO 190251Z 24006KT 10SM CLR 17/12 A2994 RMK AO2 SLP136 T01670117 53001
KLGB 190253Z 31009KT 10SM CLR 18/13 A2993 RMK AO2 SLP134 T01780128 53005
KLGB 182337Z 1900/1924 24008KT P6SM SKC 
     FM190400 VRB03KT P6SM SKC 
     FM190800 VRB03KT 5SM BR BKN008 
     FM191000 VRB03KT 2SM BR OVC006 
     FM191500 VRB03KT 4SM BR OVC010 
     FM191800 18006KT P6SM SCT013 
     FM192000 19009KT P6SM SCT250
       
KVNY 190251Z 00000KT 10SM CLR 22/06 A2992 RMK AO2 SLP126 T02220056 53007
KVNY 182337Z 1900/1924 14010KT P6SM SKC 
     FM190400 VRB03KT P6SM SKC 
     FM191100 VRB03KT 1SM BR BKN004 
     FM191500 VRB03KT 2SM BR OVC006 
     FM191700 VRB03KT 4SM HZ SCT250 
     FM192000 14009KT P6SM SCT250
       
KBUR 190253Z 18005KT 10SM CLR 20/06 A2992 RMK AO2 SLP122 T02000061 53002
KBUR 182337Z 1900/1924 17009KT P6SM SKC 
     FM190400 14005KT P6SM SKC 
     FM190900 VRB03KT 5SM HZ SKC 
     FM191100 VRB03KT 1SM BR BKN004 
     FM191500 VRB03KT 2SM BR OVC006 
     FM191700 VRB03KT 4SM HZ SCT250 
     FM192000 17009KT P6SM SCT250
       
KBFL 190254Z 02006KT 10SM CLR 26/M03 A2986 RMK AO2 SLP105 T02561028 55002
KBFL 182320Z 1900/1924 34009KT P6SM FEW200 
     FM190500 VRB05KT P6SM SCT200
       
KPMD 190253Z AUTO 22022G27KT 10SM CLR 21/M02 A2993 RMK AO2 PK WND 23028/0243 SLP116 T02061022 53000
KPMD 182337Z 1900/1924 25015G22KT P6SM SKC 
     FM190300 25010KT P6SM SKC 
     FM190600 20006KT P6SM SKC 
     FM192100 24017G25KT P6SM SCT250
       
KOXR 190251Z 28009KT 7SM CLR 14/11 A2994 RMK AO2 SLP139 T01390111 55001
KOXR 182337Z 1900/1924 27012KT P6SM SKC 
     FM190400 VRB03KT P6SM SKC 
     FM191000 VRB03KT 2SM BR BKN005 
     FM191200 VRB03KT 1/2SM FG OVC004 
     FM191500 VRB03KT 2SM BR BKN005 
     FM191800 25008KT P6SM SCT010 
     FM192100 26012KT P6SM SKC
       
KWJF 190256Z 24012KT 10SM CLR 20/M03 A2994 RMK AO2 PK WND 21026/0157 SLP128 T02001033 53007
KWJF 182337Z 1900/1924 25017G25KT P6SM SKC 
     FM190300 25012KT P6SM SKC 
     FM190800 VRB03KT P6SM SKC 
     FM192000 23010KT P6SM SKC 
     FM192200 23020G28KT P6SM SCT250
       
KCMA 190255Z 23004KT 9SM CLR 14/11 A2994 RMK AO2 SLP147 T01440106 53001
KFAT 190253Z 33005KT 10SM FEW110 FEW200 26/00 A2986 RMK AO2 SLP109 TCU OMTNS DSNT NW-N T02610000 55005
KFAT 182320Z 1900/1924 VRB05KT P6SM SCT200
       
KEED 190256Z AUTO 00000KT 10SM CLR 30/M12 A2977 RMK AO2 SLP055 T03001122 55002 $
KEED 182320Z 1900/1924 VRB06KT P6SM SKC 
     FM190300 25010KT P6SM SKC 
     FM191200 VRB05KT P6SM SKC
       
KLSV 190258Z AUTO 12007KT 10SM CLR 27/M08 A2980 RMK AO2 SLP074 T02671084 55004
TAF KLSV 1901/2007 14009KT 9999 SKC QNH2977INS 
     BECMG 1913/1914 03012KT 9999 SKC QNH2982INS 
     BECMG 1919/1920 VRB06KT 9999 SKC QNH2977INS TX32/1921Z TN12/1912Z
       
KLAS 190256Z 19011KT 10SM FEW250 28/M11 A2979 RMK AO2 SLP067 T02781106 55005 $
KLAS 190229Z 1902/1924 20012KT P6SM FEW250 
     FM191600 VRB05KT P6SM FEW250 
     FM191900 11005KT P6SM FEW150 FEW250
       
KHII 190255Z AUTO 11007KT 10SM CLR 29/M08 A2977 RMK AO2
KIFP 190255Z AUTO 00000KT 10SM CLR 28/M09 A2977 RMK AO2